Time;durP1;ratioP1;P1;durP2;ratioP2;P2;SDS_P1;SDS_P2;PMS_P1;PMS_P2;Temp;Humidity;BMP_temperature;BMP_pressure;BME280_temperature;BME280_humidity;BME280_pressure;Samples;Min_cycle;Max_cycle;Signal;HPM_P1;HPM_P2
2022/02/05 12:59:01;;;;;;;6.70;0.73;;;8.40;99.90;;;;;;4960198;23;20232;-73
2022/02/05 13:01:28;;;;;;;4.60;0.50;;;8.50;99.90;;;;;;4949704;29;20258;-71
2022/02/05 13:04:10;;;;;;;2.60;0.83;;;8.60;99.90;;;;;;4956564;29;20211;-70
2022/02/05 13:06:37;;;;;;;2.73;0.40;;;8.50;99.90;;;;;;4956664;28;20610;-71
2022/02/05 13:09:04;;;;;;;8.03;0.80;;;8.40;99.90;;;;;;4956360;29;20667;-72
2022/02/05 13:11:32;;;;;;;5.27;0.63;;;8.40;99.90;;;;;;4956371;28;20307;-72
2022/02/05 13:14:00;;;;;;;4.43;0.90;;;8.40;99.90;;;;;;4956711;28;20291;-71
2022/02/05 13:16:37;;;;;;;1.73;0.60;;;8.50;99.90;;;;;;4956269;28;20238;-69
2022/02/05 13:19:20;;;;;;;3.37;0.63;;;8.50;99.90;;;;;;4956238;29;20333;-72
2022/02/05 13:25:00;;;;;;;7.17;0.60;;;8.80;99.90;;;;;;4956280;29;20215;-69
2022/02/05 13:27:45;;;;;;;3.33;0.63;;;8.80;99.90;;;;;;4955799;28;20215;-71
2022/02/05 13:36:01;;;;;;;4.00;0.53;;;9.20;99.90;;;;;;4955240;29;20235;-73
2022/02/05 13:38:32;;;;;;;2.97;0.40;;;9.40;99.90;;;;;;4954880;29;20286;-70
2022/02/05 13:41:01;;;;;;;2.47;0.60;;;9.50;99.90;;;;;;4949781;29;20246;-70
2022/02/05 13:43:40;;;;;;;5.00;0.77;;;9.40;99.90;;;;;;4935159;29;20679;-72
2022/02/05 13:46:12;;;;;;;7.03;0.80;;;9.40;99.90;;;;;;4941029;29;20726;-72
2022/02/05 13:48:39;;;;;;;4.93;0.57;;;9.30;99.90;;;;;;4955424;29;20227;-72
2022/02/05 13:51:06;;;;;;;5.40;0.80;;;9.40;99.90;;;;;;4955347;29;20212;-71
2022/02/05 13:53:33;;;;;;;3.70;0.50;;;9.30;99.90;;;;;;4955009;28;20215;-72
2022/02/05 13:56:05;;;;;;;4.70;0.80;;;9.30;99.90;;;;;;4955008;29;20652;-73
2022/02/05 13:58:38;;;;;;;9.20;0.90;;;9.30;99.90;;;;;;4954997;29;20598;-71
2022/02/05 14:01:05;;;;;;;2.50;0.70;;;9.30;99.90;;;;;;4955196;28;20238;-71
2022/02/05 14:03:36;;;;;;;5.33;0.80;;;9.30;99.90;;;;;;4954931;29;20212;-71
2022/02/05 14:06:04;;;;;;;3.83;0.60;;;9.10;99.90;;;;;;4954832;29;20228;-72
2022/02/05 14:08:33;;;;;;;5.63;0.70;;;9.00;99.90;;;;;;4955026;29;20212;-71
2022/02/05 14:11:01;;;;;;;9.13;1.80;;;9.00;99.90;;;;;;4955344;29;20675;-73
2022/02/05 14:13:28;;;;;;;3.03;0.77;;;9.70;99.90;;;;;;4955308;28;20212;-71
2022/02/05 14:15:57;;;;;;;5.50;1.90;;;10.10;99.90;;;;;;4955041;29;20232;-71
2022/02/05 14:18:25;;;;;;;5.07;1.03;;;10.90;99.90;;;;;;4955143;29;20212;-72
2022/02/05 14:20:56;;;;;;;5.13;1.07;;;11.00;99.90;;;;;;4953707;29;20345;-71
2022/02/05 14:23:24;;;;;;;4.53;0.50;;;10.60;99.90;;;;;;4954787;29;20215;-71
2022/02/05 14:25:57;;;;;;;2.03;0.73;;;9.90;99.90;;;;;;4955094;29;20228;-70
2022/02/05 14:28:31;;;;;;;4.90;0.70;;;9.50;99.90;;;;;;4954674;29;20552;-72
2022/02/05 14:34:03;;;;;;;1.93;0.57;;;9.00;99.90;;;;;;4954347;28;20204;-71
2022/02/05 14:42:08;;;;;;;6.07;0.80;;;8.60;99.90;;;;;;4955087;29;20202;-73
2022/02/05 14:44:35;;;;;;;4.83;0.73;;;8.40;99.90;;;;;;4954619;29;20218;-73
2022/02/05 14:47:03;;;;;;;0.80;0.40;;;8.40;99.90;;;;;;4954034;29;20214;-73
2022/02/05 14:49:29;;;;;;;3.17;0.50;;;8.40;99.90;;;;;;4954687;29;20219;-73
2022/02/05 14:52:01;;;;;;;7.07;1.07;;;8.50;99.90;;;;;;4953646;29;20210;-71
2022/02/05 14:54:29;;;;;;;2.80;0.60;;;8.60;99.90;;;;;;4954597;28;20302;-72
2022/02/05 14:56:56;;;;;;;6.77;0.93;;;8.50;99.90;;;;;;4954577;28;20228;-72
2022/02/05 14:59:23;;;;;;;1.73;0.50;;;8.50;99.90;;;;;;4954216;29;20238;-71
2022/02/05 15:01:50;;;;;;;7.37;1.00;;;8.50;99.90;;;;;;4955182;29;20230;-73
2022/02/05 15:04:17;;;;;;;3.47;0.60;;;8.60;99.90;;;;;;4953623;29;20681;-72
2022/02/05 15:06:46;;;;;;;2.87;0.57;;;8.70;99.90;;;;;;4953482;29;20228;-70
2022/02/05 15:09:16;;;;;;;5.80;0.73;;;8.60;99.90;;;;;;4945172;28;20209;-70
2022/02/05 15:11:43;;;;;;;6.20;0.70;;;8.60;99.90;;;;;;4945233;28;20235;-70
2022/02/05 15:14:10;;;;;;;2.10;0.57;;;8.50;99.90;;;;;;4939900;28;20216;-70
2022/02/05 15:16:38;;;;;;;3.23;0.70;;;8.50;99.90;;;;;;4940645;28;20224;-70
2022/02/05 15:19:06;;;;;;;3.43;0.50;;;8.40;99.90;;;;;;4940862;28;20209;-70
2022/02/05 15:21:36;;;;;;;4.73;0.70;;;8.40;99.90;;;;;;4950500;28;20212;-70
2022/02/05 15:24:04;;;;;;;4.53;0.70;;;8.50;99.90;;;;;;4947381;28;20216;-70
2022/02/05 15:26:33;;;;;;;3.93;0.80;;;8.60;99.90;;;;;;4952152;28;20232;-70
2022/02/05 15:29:01;;;;;;;7.87;0.60;;;8.60;99.90;;;;;;4947653;28;20208;-70
2022/02/05 15:31:28;;;;;;;1.77;0.70;;;8.70;99.90;;;;;;4953183;28;20219;-71
2022/02/05 15:33:57;;;;;;;4.23;1.30;;;8.80;99.90;;;;;;4947650;28;20235;-70
2022/02/05 15:36:29;;;;;;;5.13;0.87;;;8.70;99.90;;;;;;4950530;28;20230;-70
2022/02/05 15:39:10;;;;;;;5.50;1.60;;;8.80;99.90;;;;;;4950106;28;20205;-70
2022/02/05 15:44:23;;;;;;;3.03;0.80;;;8.80;99.90;;;;;;4947240;29;20598;-70
2022/02/05 15:46:50;;;;;;;3.33;0.60;;;8.70;99.90;;;;;;4957216;28;20310;-70
2022/02/05 15:49:17;;;;;;;4.20;0.70;;;8.60;99.90;;;;;;4957261;29;20204;-70
2022/02/05 15:51:45;;;;;;;9.13;1.13;;;8.50;99.90;;;;;;4956949;29;20212;-70
2022/02/05 15:54:13;;;;;;;4.43;0.90;;;8.40;99.90;;;;;;4957378;29;20336;-70
2022/02/05 15:56:46;;;;;;;2.63;0.90;;;8.40;99.90;;;;;;4957504;28;20238;-70
2022/02/05 15:59:17;;;;;;;3.90;1.10;;;8.40;99.90;;;;;;4957071;29;20215;-70
2022/02/05 16:01:45;;;;;;;2.43;0.60;;;8.40;99.90;;;;;;4957347;29;20235;-70
2022/02/05 16:04:12;;;;;;;4.50;1.00;;;8.30;99.90;;;;;;4957434;29;20249;-70
2022/02/05 16:06:39;;;;;;;3.37;0.60;;;8.20;99.90;;;;;;4957624;28;20228;-70
2022/02/05 16:09:06;;;;;;;5.17;1.23;;;8.10;99.90;;;;;;4956515;28;20291;-70
2022/02/05 16:11:33;;;;;;;4.70;0.63;;;8.10;99.90;;;;;;4957094;28;20208;-70
2022/02/05 16:14:02;;;;;;;2.20;0.87;;;8.00;99.90;;;;;;4956810;28;20208;-70
2022/02/05 16:16:28;;;;;;;2.73;0.90;;;8.00;99.90;;;;;;4957230;29;20232;-70
2022/02/05 16:18:56;;;;;;;3.73;0.70;;;7.90;99.90;;;;;;4957182;29;20215;-70
2022/02/05 16:21:23;;;;;;;4.77;0.90;;;7.90;99.90;;;;;;4956797;29;20606;-70
2022/02/05 16:23:52;;;;;;;3.50;1.00;;;8.00;99.90;;;;;;4957151;28;20222;-70
2022/02/05 16:26:19;;;;;;;3.43;0.93;;;8.00;99.90;;;;;;4956499;28;20228;-70
2022/02/05 16:28:45;;;;;;;5.23;0.60;;;8.00;99.90;;;;;;4956569;29;20660;-70
2022/02/05 16:31:14;;;;;;;1.63;0.67;;;8.10;99.90;;;;;;4956133;28;20244;-70
2022/02/05 16:33:42;;;;;;;4.83;0.70;;;8.00;99.90;;;;;;4956468;29;20231;-70
2022/02/05 16:36:12;;;;;;;4.13;0.73;;;8.00;99.90;;;;;;4955853;29;20220;-71
2022/02/05 16:38:43;;;;;;;2.20;0.67;;;7.90;99.90;;;;;;4956710;29;20271;-70
2022/02/05 16:41:10;;;;;;;2.30;0.90;;;7.90;99.90;;;;;;4956012;28;20314;-70
2022/02/05 16:43:39;;;;;;;2.50;0.70;;;7.80;99.90;;;;;;4956538;28;20212;-70
2022/02/05 16:46:08;;;;;;;6.90;1.57;;;7.80;99.90;;;;;;4955815;28;20236;-70
2022/02/05 16:48:38;;;;;;;3.80;0.60;;;7.70;99.90;;;;;;4956646;28;20212;-70
2022/02/05 16:51:07;;;;;;;1.87;0.50;;;7.60;99.90;;;;;;4956262;29;20299;-70
2022/02/05 16:53:34;;;;;;;2.97;0.80;;;7.50;99.90;;;;;;4955531;28;20294;-70
2022/02/05 16:56:01;;;;;;;2.60;0.40;;;7.60;99.90;;;;;;4956571;29;20232;-70
2022/02/05 16:58:28;;;;;;;2.50;0.57;;;7.60;99.90;;;;;;4956371;28;20212;-70
2022/02/05 17:00:54;;;;;;;5.80;0.70;;;7.60;99.90;;;;;;4956234;29;20328;-70
2022/02/05 17:03:21;;;;;;;5.73;0.90;;;7.60;99.90;;;;;;4956618;28;20743;-70
2022/02/05 17:05:50;;;;;;;7.40;0.80;;;7.60;99.90;;;;;;4956468;29;20234;-70
2022/02/05 17:08:18;;;;;;;4.27;0.70;;;7.70;99.90;;;;;;4956588;28;20235;-70
2022/02/05 17:10:45;;;;;;;4.60;1.27;;;7.70;99.90;;;;;;4956642;29;20247;-70
2022/02/05 17:13:13;;;;;;;3.27;1.10;;;7.70;99.90;;;;;;4956482;28;20215;-70
2022/02/05 17:15:40;;;;;;;3.40;0.73;;;7.70;99.90;;;;;;4956058;29;20224;-70
2022/02/05 17:18:12;;;;;;;3.37;1.23;;;7.80;99.90;;;;;;4955612;28;20204;-70
2022/02/05 17:20:50;;;;;;;10.53;2.07;;;7.80;99.90;;;;;;4956113;28;20239;-70
2022/02/05 17:23:20;;;;;;;2.70;1.10;;;7.80;99.90;;;;;;4955940;28;20204;-70
2022/02/05 17:25:47;;;;;;;3.67;0.80;;;7.70;99.90;;;;;;4956118;28;20568;-70
2022/02/05 17:28:14;;;;;;;3.90;1.20;;;7.70;99.90;;;;;;4955832;29;20214;-70
2022/02/05 17:30:41;;;;;;;2.83;1.30;;;7.70;99.90;;;;;;4955932;29;20207;-70
2022/02/05 17:33:10;;;;;;;5.67;1.13;;;7.70;99.90;;;;;;4955949;28;20212;-71
2022/02/05 17:35:41;;;;;;;6.47;2.10;;;7.60;99.90;;;;;;4955939;28;20586;-70
2022/02/05 17:38:08;;;;;;;5.50;1.50;;;7.70;99.90;;;;;;4956191;28;20744;-71
2022/02/05 17:40:36;;;;;;;3.10;0.83;;;7.70;99.90;;;;;;4955757;28;20239;-71
2022/02/05 17:43:03;;;;;;;6.03;1.20;;;7.70;99.90;;;;;;4955943;28;20208;-71
2022/02/05 17:45:30;;;;;;;6.73;1.33;;;7.70;99.90;;;;;;4955386;28;20771;-71
2022/02/05 17:47:57;;;;;;;6.33;1.77;;;7.70;99.90;;;;;;4955936;29;20219;-71
2022/02/05 17:50:23;;;;;;;3.33;1.00;;;7.70;99.90;;;;;;4955760;29;20226;-71
2022/02/05 17:52:50;;;;;;;5.33;1.40;;;7.70;99.90;;;;;;4955668;29;20218;-71
2022/02/05 17:55:17;;;;;;;3.80;1.20;;;7.80;99.90;;;;;;4955389;28;20234;-71
2022/02/05 17:57:51;;;;;;;5.03;1.50;;;7.80;99.90;;;;;;4954548;28;20204;-71
2022/02/05 18:00:20;;;;;;;4.97;1.50;;;7.80;99.90;;;;;;4955314;29;20219;-70
2022/02/05 18:02:47;;;;;;;5.37;1.30;;;7.90;99.90;;;;;;4955499;28;20207;-70
2022/02/05 18:05:15;;;;;;;6.13;1.53;;;7.90;99.90;;;;;;4955523;28;20234;-71
2022/02/05 18:07:58;;;;;;;9.40;1.87;;;7.90;99.90;;;;;;4955352;28;20299;-70
2022/02/05 18:10:34;;;;;;;3.27;1.77;;;8.00;99.90;;;;;;4955224;28;20211;-70
2022/02/05 18:13:09;;;;;;;2.00;0.90;;;7.90;99.90;;;;;;4955322;28;20256;-71
2022/02/05 18:15:38;;;;;;;7.60;1.83;;;7.90;99.90;;;;;;4955218;28;20223;-70
2022/02/05 18:18:06;;;;;;;8.20;2.57;;;7.90;99.90;;;;;;4955016;28;20215;-70
2022/02/05 18:20:33;;;;;;;10.10;1.90;;;7.90;99.90;;;;;;4955064;28;20307;-71
2022/02/05 18:23:00;;;;;;;5.07;1.40;;;7.90;99.90;;;;;;4955021;28;20211;-70
2022/02/05 18:25:29;;;;;;;5.30;1.23;;;7.90;99.90;;;;;;4955001;28;20224;-71
2022/02/05 18:27:56;;;;;;;5.00;1.10;;;8.00;99.90;;;;;;4955030;28;20686;-71
2022/02/05 18:30:24;;;;;;;4.67;1.63;;;8.00;99.90;;;;;;4954470;28;20234;-70
2022/02/05 18:32:51;;;;;;;5.50;1.47;;;8.00;99.90;;;;;;4954674;29;20196;-71
2022/02/05 18:35:23;;;;;;;7.00;1.57;;;8.00;99.90;;;;;;4954751;28;20231;-70
2022/02/05 18:37:50;;;;;;;1.37;0.97;;;8.00;99.90;;;;;;4954706;28;20679;-71
2022/02/05 18:40:21;;;;;;;2.80;0.90;;;8.00;99.90;;;;;;4955195;28;20218;-71
2022/02/05 18:42:48;;;;;;;1.53;0.50;;;8.00;99.90;;;;;;4954392;28;20200;-70
2022/02/05 18:45:15;;;;;;;3.73;0.80;;;7.90;99.90;;;;;;4954441;28;20232;-70
2022/02/05 18:47:43;;;;;;;3.13;0.93;;;8.00;99.90;;;;;;4954709;29;20286;-70
2022/02/05 18:50:11;;;;;;;4.33;1.83;;;8.00;99.90;;;;;;4954755;29;20208;-70
2022/02/05 18:52:38;;;;;;;5.47;1.10;;;8.00;99.90;;;;;;4954919;28;20223;-71
2022/02/05 18:55:06;;;;;;;2.90;0.70;;;7.90;99.90;;;;;;4955336;29;20234;-71
2022/02/05 18:57:34;;;;;;;1.97;0.70;;;7.90;99.90;;;;;;4954863;28;20208;-71
2022/02/05 19:00:06;;;;;;;4.60;0.83;;;7.80;99.90;;;;;;4953867;29;20200;-71
2022/02/05 19:02:45;;;;;;;1.90;1.10;;;7.80;99.90;;;;;;4954018;29;20232;-70
2022/02/05 19:10:58;;;;;;;1.53;0.80;;;7.80;99.90;;;;;;4954532;29;20219;-70
2022/02/05 19:18:07;;;;;;;3.90;0.80;;;7.70;99.90;;;;;;4953534;28;20220;-70
2022/02/05 19:18:59;;;;;;;2.17;1.13;;;7.70;99.90;;;;;;4954465;29;20267;-70
2022/02/05 19:21:28;;;;;;;5.23;0.70;;;7.70;99.90;;;;;;4954049;29;20322;-71
2022/02/05 19:23:55;;;;;;;2.20;0.73;;;7.70;99.90;;;;;;4954664;29;20219;-71
2022/02/05 19:26:22;;;;;;;4.33;1.03;;;7.70;99.90;;;;;;4946011;28;20235;-70
2022/02/05 19:28:49;;;;;;;0.97;0.83;;;7.80;99.90;;;;;;4943877;28;20208;-70
2022/02/05 19:31:15;;;;;;;6.13;1.00;;;7.80;99.90;;;;;;4935124;29;20215;-71
2022/02/05 19:33:42;;;;;;;3.70;1.23;;;7.90;99.90;;;;;;4952194;29;20204;-70
2022/02/05 19:36:09;;;;;;;6.00;1.27;;;7.90;99.90;;;;;;4954438;28;20228;-71
2022/02/05 19:38:38;;;;;;;4.63;0.60;;;7.90;99.90;;;;;;4954587;28;20200;-70
2022/02/05 19:41:06;;;;;;;5.23;1.03;;;8.00;99.90;;;;;;4954309;28;20262;-70
2022/02/05 19:43:38;;;;;;;4.83;1.00;;;8.00;99.90;;;;;;4954732;28;20208;-70
2022/02/05 19:46:06;;;;;;;3.77;0.97;;;7.90;99.90;;;;;;4954228;28;20224;-70
2022/02/05 19:48:34;;;;;;;2.13;1.00;;;7.90;99.90;;;;;;4954488;29;20337;-70
2022/02/05 19:51:01;;;;;;;3.83;0.87;;;7.80;99.90;;;;;;4954648;28;20212;-70
2022/02/05 19:53:28;;;;;;;4.53;0.80;;;7.80;99.90;;;;;;4953775;28;20204;-70
2022/02/05 19:55:57;;;;;;;5.67;1.60;;;7.80;99.90;;;;;;4952866;29;20639;-70
2022/02/05 19:58:24;;;;;;;4.57;1.00;;;7.80;99.90;;;;;;4952983;28;20585;-71
2022/02/05 20:00:51;;;;;;;5.53;0.70;;;7.90;99.90;;;;;;4952727;28;20204;-71
2022/02/05 20:03:22;;;;;;;12.37;1.40;;;7.80;99.90;;;;;;4954009;28;20200;-71
2022/02/05 20:05:52;;;;;;;1.90;0.53;;;7.80;99.90;;;;;;4954198;28;20319;-71
2022/02/05 20:08:27;;;;;;;1.63;0.67;;;7.80;99.90;;;;;;4954376;29;20215;-71
2022/02/05 20:10:58;;;;;;;1.20;0.70;;;7.90;99.90;;;;;;4954256;28;20211;-70
2022/02/05 20:13:26;;;;;;;2.87;0.80;;;7.90;99.90;;;;;;4953908;29;20231;-71
2022/02/05 20:15:55;;;;;;;2.33;0.70;;;7.90;99.90;;;;;;4954059;28;20669;-71
2022/02/05 20:18:23;;;;;;;0.90;0.60;;;7.90;99.90;;;;;;4951162;28;20205;-71
2022/02/05 20:20:50;;;;;;;1.43;0.60;;;7.90;99.90;;;;;;4936556;29;20216;-71
2022/02/05 20:23:17;;;;;;;4.50;0.80;;;7.90;99.90;;;;;;4938436;29;20672;-69
2022/02/05 20:25:49;;;;;;;2.13;0.70;;;8.00;99.90;;;;;;4938064;29;20237;-70
2022/02/05 20:28:19;;;;;;;4.07;0.97;;;8.00;99.90;;;;;;4938584;29;20212;-70
2022/02/05 20:30:51;;;;;;;2.53;0.80;;;8.10;99.90;;;;;;4938003;29;20296;-70
2022/02/05 20:33:21;;;;;;;3.60;0.80;;;8.10;99.90;;;;;;4938209;29;20240;-70
2022/02/05 20:35:48;;;;;;;3.07;0.90;;;8.10;99.90;;;;;;4938086;29;20229;-70
2022/02/05 20:38:14;;;;;;;3.87;1.03;;;8.10;99.90;;;;;;4937979;29;20213;-70
2022/02/05 20:40:41;;;;;;;2.27;0.60;;;8.20;99.90;;;;;;4938234;29;20215;-70
2022/02/05 20:43:08;;;;;;;4.47;1.23;;;8.10;99.90;;;;;;4937891;29;20236;-71
2022/02/05 20:45:36;;;;;;;4.27;0.77;;;8.10;99.90;;;;;;4950564;29;20314;-71
2022/02/05 20:48:04;;;;;;;1.20;0.70;;;8.10;99.90;;;;;;4957209;28;20294;-71
2022/02/05 20:50:33;;;;;;;1.50;0.70;;;8.10;99.90;;;;;;4957247;28;20279;-71
2022/02/05 20:53:01;;;;;;;4.53;0.83;;;8.10;99.90;;;;;;4957020;29;20216;-71
2022/02/05 20:55:29;;;;;;;1.13;0.60;;;8.10;99.90;;;;;;4956661;28;20314;-71
2022/02/05 20:57:56;;;;;;;6.03;0.87;;;8.10;99.90;;;;;;4955153;28;20208;-71
2022/02/05 21:00:24;;;;;;;2.33;0.50;;;8.10;99.90;;;;;;4937565;29;20208;-71
2022/02/05 21:02:52;;;;;;;2.93;0.90;;;8.10;99.90;;;;;;4937759;29;20245;-71
2022/02/05 21:05:20;;;;;;;1.20;0.57;;;8.10;99.90;;;;;;4937727;29;20235;-71
2022/02/05 21:07:47;;;;;;;6.97;1.10;;;8.20;99.90;;;;;;4937802;29;20209;-71
2022/02/05 21:10:15;;;;;;;4.10;0.80;;;8.10;99.90;;;;;;4937780;29;20209;-71
2022/02/05 21:12:42;;;;;;;4.37;0.53;;;8.10;99.90;;;;;;4937631;29;20215;-71
2022/02/05 21:15:10;;;;;;;2.77;0.60;;;8.10;99.90;;;;;;4937225;29;20229;-71
2022/02/05 21:17:37;;;;;;;2.37;0.50;;;8.10;99.90;;;;;;4937190;29;20213;-71
2022/02/05 21:20:07;;;;;;;1.57;0.47;;;8.10;99.90;;;;;;4937085;29;20215;-71
2022/02/05 21:22:34;;;;;;;2.37;0.60;;;8.10;99.90;;;;;;4937047;29;20712;-71
2022/02/05 21:25:01;;;;;;;6.17;0.60;;;8.10;99.90;;;;;;4937364;29;20252;-71
2022/02/05 21:27:31;;;;;;;2.30;0.60;;;8.10;99.90;;;;;;4937527;29;20577;-71
2022/02/05 21:30:01;;;;;;;6.90;0.90;;;8.10;99.90;;;;;;4937046;29;20211;-71
2022/02/05 21:32:31;;;;;;;3.90;0.80;;;8.20;99.90;;;;;;4937041;29;20223;-71
2022/02/05 21:34:58;;;;;;;1.43;0.53;;;8.20;99.90;;;;;;4937332;28;20324;-71
2022/02/05 21:37:29;;;;;;;3.33;0.67;;;8.20;99.90;;;;;;4947956;28;20204;-71
2022/02/05 21:39:59;;;;;;;3.77;0.70;;;8.20;99.90;;;;;;4936789;29;20287;-70
2022/02/05 21:42:26;;;;;;;3.80;0.63;;;8.20;99.90;;;;;;4949631;29;20229;-70
2022/02/05 21:44:53;;;;;;;6.47;0.73;;;8.20;99.90;;;;;;4944946;29;20205;-70
2022/02/05 21:47:21;;;;;;;1.60;0.70;;;8.20;99.90;;;;;;4950892;29;20568;-70
2022/02/05 21:49:55;;;;;;;1.00;0.50;;;8.20;99.90;;;;;;4945744;28;20196;-70
2022/02/05 21:52:26;;;;;;;4.43;1.13;;;8.20;99.90;;;;;;4942690;28;20208;-71
2022/02/05 21:55:01;;;;;;;3.10;0.80;;;8.30;99.90;;;;;;4945194;28;20210;-71
2022/02/05 21:57:32;;;;;;;7.70;0.93;;;8.30;99.90;;;;;;4941844;29;20212;-71
2022/02/05 22:00:00;;;;;;;2.43;0.70;;;8.30;99.90;;;;;;4937001;29;20208;-71
2022/02/05 22:02:29;;;;;;;7.80;0.93;;;8.20;99.90;;;;;;4954655;29;20232;-71
2022/02/05 22:04:58;;;;;;;3.07;0.67;;;8.20;99.90;;;;;;4948139;28;20220;-70
2022/02/05 22:07:25;;;;;;;1.43;0.63;;;8.10;99.90;;;;;;4945196;29;20208;-71
2022/02/05 22:09:55;;;;;;;7.60;0.80;;;8.00;99.90;;;;;;4955211;28;20211;-71
2022/02/05 22:12:23;;;;;;;2.07;0.77;;;8.00;99.90;;;;;;4938047;29;20205;-71
2022/02/05 22:14:51;;;;;;;1.33;0.53;;;7.90;99.90;;;;;;4946826;28;20205;-71
2022/02/05 22:17:18;;;;;;;4.00;0.80;;;7.90;99.90;;;;;;4950524;29;20207;-71
2022/02/05 22:19:45;;;;;;;1.20;0.50;;;7.80;99.90;;;;;;4940583;28;20205;-71
2022/02/05 22:22:13;;;;;;;4.97;0.93;;;7.90;99.90;;;;;;4938055;29;20254;-71
2022/02/05 22:24:41;;;;;;;2.87;0.77;;;7.90;99.90;;;;;;4951805;28;20204;-71
2022/02/05 22:27:09;;;;;;;5.37;1.13;;;7.90;99.90;;;;;;4953713;28;20229;-70
2022/02/05 22:29:36;;;;;;;3.07;0.70;;;7.90;99.90;;;;;;4954377;29;20555;-70
2022/02/05 22:32:05;;;;;;;3.83;0.70;;;7.90;99.90;;;;;;4954704;29;20211;-70
2022/02/05 22:34:31;;;;;;;4.37;0.70;;;7.90;99.90;;;;;;4954874;29;20262;-70
2022/02/05 22:36:59;;;;;;;2.53;0.47;;;8.00;99.90;;;;;;4954610;28;20231;-71
2022/02/05 22:39:27;;;;;;;4.87;0.90;;;8.00;99.90;;;;;;4954838;29;20452;-71
2022/02/05 22:41:54;;;;;;;1.73;0.97;;;8.10;99.90;;;;;;4954700;28;20283;-71
2022/02/05 22:44:23;;;;;;;4.63;0.67;;;8.10;99.90;;;;;;4954316;28;20667;-71
2022/02/05 22:46:50;;;;;;;2.23;0.70;;;8.10;99.90;;;;;;4954583;28;20227;-71
2022/02/05 22:49:17;;;;;;;3.30;0.67;;;8.20;99.90;;;;;;4954719;28;20204;-71
2022/02/05 22:51:47;;;;;;;6.83;0.80;;;8.20;99.90;;;;;;4958974;28;20301;-71
2022/02/05 22:54:14;;;;;;;3.07;0.73;;;8.20;99.90;;;;;;4961506;28;20204;-71
2022/02/05 22:56:42;;;;;;;4.10;0.90;;;8.20;99.90;;;;;;4954822;28;20568;-71
2022/02/05 22:59:10;;;;;;;6.83;0.90;;;8.20;99.90;;;;;;4935547;29;20252;-71
2022/02/05 23:01:39;;;;;;;2.83;0.80;;;8.20;99.90;;;;;;4935464;29;20238;-71
2022/02/05 23:04:06;;;;;;;2.47;0.60;;;8.20;99.90;;;;;;4946325;29;20211;-71
2022/02/05 23:06:34;;;;;;;4.37;0.70;;;8.20;99.90;;;;;;4941422;29;20238;-71
2022/02/05 23:09:07;;;;;;;7.10;1.20;;;8.20;99.90;;;;;;4941289;29;20204;-71
2022/02/05 23:14:40;;;;;;;1.93;0.53;;;8.10;99.90;;;;;;4936495;28;20239;-71
2022/02/05 23:44:30;;;;;;;4.27;0.80;;;8.00;99.90;;;;;;4257952;23;20238;-72
2022/02/05 23:46:56;;;;;;;4.03;0.60;;;8.00;99.90;;;;;;4945942;29;20308;-72
2022/02/05 23:49:24;;;;;;;2.47;0.90;;;8.00;99.90;;;;;;4949915;29;20681;-73
2022/02/05 23:51:51;;;;;;;6.63;1.10;;;8.10;99.90;;;;;;4929554;29;20835;-72
2022/02/05 23:54:18;;;;;;;2.53;0.63;;;8.10;99.90;;;;;;4928438;29;20874;-72
2022/02/05 23:56:45;;;;;;;5.20;1.10;;;8.10;99.90;;;;;;4937022;29;20215;-73
2022/02/05 23:59:11;;;;;;;3.37;0.50;;;8.10;99.90;;;;;;4937926;29;20204;-72
